createdAt,value
2022-09-17T00:01:33.325Z,13.43
2022-09-17T00:04:04.388Z,13.44
2022-09-17T00:06:36.720Z,13.39
2022-09-17T00:09:06.442Z,13.39
2022-09-17T00:11:36.830Z,13.42
2022-09-17T00:14:07.070Z,13.37
2022-09-17T00:16:39.647Z,13.35
2022-09-17T00:19:10.130Z,13.35
2022-09-17T00:21:37.916Z,13.32
2022-09-17T00:24:07.626Z,13.31
2022-09-17T00:26:36.761Z,13.30
2022-09-17T00:29:06.409Z,13.30
2022-09-17T00:31:34.948Z,13.29
2022-09-17T00:34:06.220Z,13.29
2022-09-17T00:36:36.834Z,13.29
2022-09-17T00:39:06.057Z,13.23
2022-09-17T00:41:35.615Z,13.23
2022-09-17T00:44:41.766Z,13.24
2022-09-17T00:47:32.515Z,13.24
2022-09-17T00:50:10.297Z,13.24
2022-09-17T00:52:42.590Z,13.26
2022-09-17T00:55:13.030Z,13.25
2022-09-17T00:57:42.350Z,13.24
2022-09-17T01:00:14.180Z,13.23
2022-09-17T01:02:43.380Z,13.24
2022-09-17T01:05:13.051Z,13.23
2022-09-17T01:07:43.505Z,13.18
2022-09-17T01:10:28.989Z,13.18
2022-09-17T01:13:31.735Z,13.16
2022-09-17T01:16:46.970Z,13.14
2022-09-17T01:19:48.869Z,13.12
2022-09-17T01:22:22.193Z,13.09
2022-09-17T01:24:51.433Z,13.06
2022-09-17T01:27:49.728Z,13.06
2022-09-17T01:30:38.775Z,13.08
2022-09-17T01:33:28.755Z,13.11
2022-09-17T01:36:25.510Z,13.05
2022-09-17T01:39:00.325Z,13.07
2022-09-17T01:41:56.873Z,13.07
2022-09-17T01:44:36.813Z,13.10
2022-09-17T01:47:16.640Z,13.06
2022-09-17T01:49:47.058Z,13.11
2022-09-17T01:52:19.056Z,13.14
2022-09-17T01:54:54.795Z,13.16
2022-09-17T01:57:30.465Z,13.11
2022-09-17T02:00:05.938Z,13.07
2022-09-17T02:02:39.458Z,13.09
2022-09-17T02:05:09.718Z,13.06
2022-09-17T02:07:46.121Z,13.05
2022-09-17T02:10:18.523Z,13.05
2022-09-17T02:12:51.188Z,13.06
2022-09-17T02:15:26.543Z,13.04
2022-09-17T02:18:01.914Z,12.98
2022-09-17T02:20:47.003Z,12.99
2022-09-17T02:23:21.952Z,12.94
2022-09-17T02:26:00.893Z,12.94
2022-09-17T02:29:00.179Z,12.89
2022-09-17T02:31:27.720Z,12.88
2022-09-17T02:34:00.967Z,12.91
2022-09-17T02:36:29.612Z,12.86
2022-09-17T02:39:01.670Z,12.88
2022-09-17T02:41:57.233Z,12.82
2022-09-17T02:44:34.111Z,12.79
2022-09-17T02:47:15.122Z,12.75
2022-09-17T02:50:14.778Z,12.75
2022-09-17T02:53:04.011Z,12.76
2022-09-17T02:55:47.718Z,12.69
2022-09-17T02:58:17.990Z,12.70
2022-09-17T03:00:47.236Z,12.64
2022-09-17T03:03:32.762Z,12.61
2022-09-17T03:06:03.349Z,12.59
2022-09-17T03:08:36.683Z,12.56
2022-09-17T03:11:04.778Z,12.54
2022-09-17T03:13:32.949Z,12.49
2022-09-17T03:16:00.480Z,12.44
2022-09-17T03:18:27.968Z,12.42
2022-09-17T03:20:55.470Z,12.42
2022-09-17T03:23:23.018Z,12.40
2022-09-17T03:25:50.567Z,12.37
2022-09-17T03:28:18.256Z,12.34
2022-09-17T03:30:46.537Z,12.30
2022-09-17T03:33:14.379Z,12.27
2022-09-17T03:35:48.212Z,12.25
2022-09-17T03:38:16.496Z,12.22
2022-09-17T03:40:44.328Z,12.20
2022-09-17T03:43:12.162Z,12.19
2022-09-17T03:45:39.657Z,12.19
2022-09-17T03:48:07.162Z,12.19
2022-09-17T03:50:34.644Z,12.16
2022-09-17T03:53:04.524Z,12.16
2022-09-17T03:55:32.023Z,12.15
2022-09-17T03:57:59.485Z,12.12
2022-09-17T04:00:27.372Z,12.11
2022-09-17T04:02:55.843Z,12.11
2022-09-17T04:05:23.642Z,12.13
2022-09-17T04:07:51.698Z,12.13
2022-09-17T04:10:19.379Z,12.16
2022-09-17T04:12:46.870Z,12.15
2022-09-17T04:15:16.561Z,12.17
2022-09-17T04:17:44.200Z,12.18
2022-09-17T04:20:11.702Z,12.17
2022-09-17T04:22:41.313Z,12.18
2022-09-17T04:25:11.790Z,12.18
2022-09-17T04:27:39.310Z,12.18
2022-09-17T04:30:07.774Z,12.17
2022-09-17T04:32:37.715Z,12.20
2022-09-17T04:35:09.525Z,12.21
2022-09-17T04:37:37.622Z,12.24
2022-09-17T04:40:07.958Z,12.27
2022-09-17T04:42:35.790Z,12.28
2022-09-17T04:45:03.309Z,12.30
2022-09-17T04:47:30.804Z,12.36
2022-09-17T04:49:58.288Z,12.38
2022-09-17T04:52:30.786Z,12.41
2022-09-17T04:55:03.634Z,12.41
2022-09-17T04:57:31.119Z,12.75
2022-09-17T04:59:58.846Z,12.70
2022-09-17T05:02:26.828Z,12.66
2022-09-17T05:04:54.407Z,12.61
2022-09-17T05:07:21.940Z,12.59
2022-09-17T05:09:49.620Z,12.62
2022-09-17T05:12:17.107Z,12.63
2022-09-17T05:14:45.619Z,12.64
2022-09-17T05:17:13.148Z,12.61
2022-09-17T05:19:40.731Z,12.61
2022-09-17T05:22:08.244Z,12.59
2022-09-17T05:24:39.293Z,12.58
2022-09-17T05:27:09.957Z,12.59
2022-09-17T05:29:37.729Z,12.57
2022-09-17T05:32:08.594Z,12.58
2022-09-17T05:34:38.492Z,12.60
2022-09-17T05:37:05.980Z,12.65
2022-09-17T05:39:33.686Z,12.72
2022-09-17T05:42:01.251Z,12.75
2022-09-17T05:44:29.073Z,12.82
2022-09-17T05:46:56.731Z,12.82
2022-09-17T05:49:24.400Z,12.86
2022-09-17T05:51:52.573Z,12.89
2022-09-17T05:54:20.090Z,12.90
2022-09-17T05:56:47.671Z,12.85
2022-09-17T05:59:15.644Z,12.84
2022-09-17T06:01:43.469Z,12.84
2022-09-17T06:04:11.192Z,12.82
2022-09-17T06:06:41.732Z,12.73
2022-09-17T06:09:10.488Z,12.62
2022-09-17T06:11:39.899Z,12.63
2022-09-17T06:14:07.446Z,12.70
2022-09-17T06:16:35.106Z,12.62
2022-09-17T06:19:03.926Z,12.60
2022-09-17T06:21:32.614Z,12.60
2022-09-17T06:24:03.026Z,12.62
2022-09-17T06:26:32.954Z,12.71
2022-09-17T06:29:01.537Z,12.74
2022-09-17T06:31:31.507Z,12.83
2022-09-17T06:33:59.297Z,12.90
2022-09-17T06:36:27.035Z,13.00
2022-09-17T06:38:57.429Z,13.04
2022-09-17T06:41:25.557Z,13.01
2022-09-17T06:43:56.154Z,12.99
2022-09-17T06:46:24.047Z,12.95
2022-09-17T06:48:51.845Z,12.96
2022-09-17T06:51:21.650Z,12.94
2022-09-17T06:53:49.842Z,12.98
2022-09-17T06:56:18.043Z,13.03
2022-09-17T06:58:46.931Z,13.03
2022-09-17T07:01:15.073Z,13.06
2022-09-17T07:03:44.268Z,13.08
2022-09-17T07:06:13.030Z,13.09
2022-09-17T07:08:41.585Z,13.15
2022-09-17T07:11:10.735Z,13.16
2022-09-17T07:13:38.219Z,13.24
2022-09-17T07:16:08.116Z,13.28
2022-09-17T07:18:35.712Z,13.31
2022-09-17T07:21:05.373Z,13.36
2022-09-17T07:23:39.086Z,13.41
2022-09-17T07:26:13.320Z,13.52
2022-09-17T07:28:41.829Z,13.65
2022-09-17T07:31:16.335Z,13.73
2022-09-17T07:33:45.251Z,13.81
2022-09-17T07:36:14.873Z,13.85
2022-09-17T07:38:42.604Z,13.95
2022-09-17T07:41:19.553Z,14.06
2022-09-17T07:43:47.123Z,14.15
2022-09-17T07:46:17.593Z,14.19
2022-09-17T07:48:46.279Z,14.29
2022-09-17T07:51:24.444Z,14.40
2022-09-17T07:53:53.773Z,14.41
2022-09-17T07:56:22.047Z,14.50
2022-09-17T07:58:50.193Z,14.55
2022-09-17T08:01:18.602Z,14.57
2022-09-17T08:03:51.310Z,14.52
2022-09-17T08:06:21.828Z,14.50
2022-09-17T08:08:50.320Z,14.43
2022-09-17T08:11:44.564Z,14.43
2022-09-17T08:14:11.586Z,14.30
2022-09-17T08:16:42.205Z,14.31
2022-09-17T08:19:10.569Z,14.33
2022-09-17T08:21:40.261Z,14.38
2022-09-17T08:24:07.972Z,14.47
2022-09-17T08:26:39.121Z,14.51
2022-09-17T08:29:07.390Z,14.47
2022-09-17T08:31:35.216Z,14.44
2022-09-17T08:34:09.220Z,14.45
2022-09-17T08:36:36.890Z,14.50
2022-09-17T08:39:05.294Z,14.56
2022-09-17T08:42:31.339Z,14.64
2022-09-17T08:45:02.921Z,14.65
2022-09-17T08:47:40.891Z,14.77
2022-09-17T08:50:39.421Z,14.71
2022-09-17T08:53:26.683Z,14.70
2022-09-17T08:56:19.135Z,14.84
2022-09-17T08:59:12.259Z,14.78
2022-09-17T09:01:43.530Z,14.85
2022-09-17T09:04:42.657Z,14.73
2022-09-17T09:07:17.601Z,14.59
2022-09-17T09:09:54.041Z,14.62
2022-09-17T09:12:28.237Z,14.46
2022-09-17T09:15:03.906Z,14.39
2022-09-17T09:17:55.204Z,14.33
2022-09-17T09:20:37.467Z,14.34
2022-09-17T09:23:21.067Z,14.39
2022-09-17T09:26:22.046Z,14.38
2022-09-17T09:29:23.817Z,14.43
2022-09-17T09:32:32.593Z,14.38
2022-09-17T09:35:13.368Z,14.55
2022-09-17T09:37:47.516Z,14.63
2022-09-17T09:40:34.972Z,14.90
2022-09-17T09:43:14.338Z,15.12
2022-09-17T09:46:05.868Z,15.35
2022-09-17T09:49:12.036Z,15.34
2022-09-17T09:52:10.567Z,15.34
2022-09-17T09:54:50.156Z,15.49
2022-09-17T09:57:25.907Z,15.40
2022-09-17T10:00:35.275Z,15.27
2022-09-17T10:03:20.694Z,15.17
2022-09-17T10:05:58.405Z,15.09
2022-09-17T10:08:27.010Z,14.91
2022-09-17T10:11:02.048Z,14.87
2022-09-17T10:13:32.788Z,14.98
2022-09-17T10:16:18.944Z,15.00
2022-09-17T10:18:48.313Z,14.96
2022-09-17T10:21:34.483Z,15.06
2022-09-17T10:24:04.869Z,14.98
2022-09-17T10:26:37.610Z,14.95
2022-09-17T10:29:16.493Z,14.86
2022-09-17T10:31:59.876Z,14.86
2022-09-17T10:34:32.083Z,14.90
2022-09-17T10:36:59.984Z,15.01
2022-09-17T10:39:32.017Z,14.97
2022-09-17T10:42:02.565Z,15.09
2022-09-17T10:44:40.488Z,14.99
2022-09-17T10:47:18.518Z,14.97
2022-09-17T10:50:01.444Z,14.86
2022-09-17T10:52:36.886Z,14.92
2022-09-17T10:55:10.158Z,14.74
2022-09-17T10:57:56.888Z,14.72
2022-09-17T11:00:25.579Z,14.91
2022-09-17T11:03:27.185Z,14.99
2022-09-17T11:06:17.673Z,15.08
2022-09-17T11:09:17.470Z,15.18
2022-09-17T11:12:03.054Z,15.06
2022-09-17T11:14:51.689Z,14.76
2022-09-17T11:17:41.082Z,14.72
2022-09-17T11:20:17.488Z,14.60
2022-09-17T11:23:18.912Z,14.71
2022-09-17T11:26:14.178Z,14.62
2022-09-17T11:28:48.979Z,14.41
2022-09-17T11:31:23.885Z,14.32
2022-09-17T11:34:13.549Z,14.32
2022-09-17T11:36:50.154Z,14.31
2022-09-17T11:39:31.526Z,14.32
2022-09-17T11:42:06.044Z,14.42
2022-09-17T11:44:39.883Z,14.63
2022-09-17T11:47:26.574Z,14.60
2022-09-17T11:50:06.520Z,14.71
2022-09-17T11:53:12.622Z,14.77
2022-09-17T11:55:52.332Z,14.60
2022-09-17T11:58:44.504Z,14.51
2022-09-17T12:01:22.976Z,14.44
2022-09-17T12:04:15.954Z,14.44
2022-09-17T12:06:53.385Z,14.50
2022-09-17T12:09:25.975Z,14.54
2022-09-17T12:12:07.694Z,14.60
2022-09-17T12:14:59.764Z,14.53
2022-09-17T12:17:49.046Z,14.38
2022-09-17T12:20:29.344Z,14.37
2022-09-17T12:23:03.950Z,14.24
2022-09-17T12:25:43.868Z,14.26
2022-09-17T12:28:48.503Z,14.22
2022-09-17T12:31:50.145Z,14.14
2022-09-17T12:34:39.187Z,14.07
2022-09-17T12:37:17.612Z,14.03
2022-09-17T12:40:09.041Z,14.03
2022-09-17T12:42:50.214Z,14.07
2022-09-17T12:45:29.433Z,14.13
2022-09-17T12:48:04.082Z,14.20
2022-09-17T12:50:51.921Z,14.30
2022-09-17T12:53:40.933Z,14.32
2022-09-17T12:56:19.333Z,14.35
2022-09-17T12:59:20.786Z,14.33
2022-09-17T13:02:15.804Z,14.31
2022-09-17T13:05:03.196Z,14.24
2022-09-17T13:07:45.801Z,14.22
2022-09-17T13:10:24.464Z,14.13
2022-09-17T13:13:16.048Z,14.11
2022-09-17T13:16:06.101Z,13.98
2022-09-17T13:19:22.813Z,13.88
2022-09-17T13:21:56.132Z,13.84
2022-09-17T13:24:27.080Z,13.82
2022-09-17T13:26:58.661Z,13.77
2022-09-17T13:29:44.891Z,13.75
2022-09-17T13:32:34.615Z,13.72
2022-09-17T13:35:11.297Z,13.70
2022-09-17T13:37:46.829Z,13.66
2022-09-17T13:40:30.811Z,13.55
2022-09-17T13:43:06.804Z,13.53
2022-09-17T13:45:55.234Z,13.52
2022-09-17T13:48:26.650Z,13.54
2022-09-17T13:50:54.192Z,13.49
2022-09-17T13:53:27.275Z,13.51
2022-09-17T13:56:01.149Z,13.48
2022-09-17T13:58:34.814Z,13.46
2022-09-17T14:01:13.019Z,13.49
2022-09-17T14:03:41.818Z,13.51
2022-09-17T14:06:09.385Z,13.55
2022-09-17T14:08:45.740Z,13.55
2022-09-17T14:11:22.455Z,13.54
2022-09-17T14:13:57.813Z,13.57
2022-09-17T14:16:35.323Z,13.48
2022-09-17T14:19:22.974Z,13.48
2022-09-17T14:21:55.129Z,13.45
2022-09-17T14:24:34.034Z,13.41
2022-09-17T14:27:22.773Z,13.37
2022-09-17T14:30:08.653Z,13.36
2022-09-17T14:32:44.629Z,13.30
2022-09-17T14:35:20.187Z,13.27
2022-09-17T14:37:54.392Z,13.23
2022-09-17T14:40:24.008Z,13.21
2022-09-17T14:42:56.840Z,13.15
2022-09-17T14:45:39.134Z,13.14
2022-09-17T14:48:27.930Z,13.10
2022-09-17T14:51:20.419Z,13.06
2022-09-17T14:54:17.090Z,13.05
2022-09-17T14:56:52.246Z,13.00
2022-09-17T14:59:43.363Z,12.97
2022-09-17T15:02:34.019Z,12.95
2022-09-17T15:05:04.120Z,12.98
2022-09-17T15:07:31.828Z,12.97
2022-09-17T15:10:20.542Z,12.94
2022-09-17T15:12:50.226Z,12.93
2022-09-17T15:15:26.850Z,12.88
2022-09-17T15:17:55.556Z,12.89
2022-09-17T15:20:33.561Z,12.87
2022-09-17T15:23:32.092Z,12.86
2022-09-17T15:26:02.525Z,12.85
2022-09-17T15:28:40.427Z,12.84
2022-09-17T15:31:18.436Z,12.85
2022-09-17T15:33:48.092Z,12.80
2022-09-17T15:36:23.023Z,12.77
2022-09-17T15:38:52.491Z,12.67
2022-09-17T15:41:23.627Z,12.65
2022-09-17T15:43:51.601Z,12.59
2022-09-17T15:46:30.633Z,12.54
2022-09-17T15:49:35.389Z,12.50
2022-09-17T15:52:35.329Z,12.45
2022-09-17T15:55:03.410Z,12.43
2022-09-17T15:57:33.416Z,12.41
2022-09-17T16:00:14.206Z,12.41
2022-09-17T16:02:44.357Z,12.38
2022-09-17T16:05:16.535Z,12.36
2022-09-17T16:07:45.821Z,12.32
2022-09-17T16:10:15.538Z,12.33
2022-09-17T16:12:43.953Z,12.30
2022-09-17T16:15:13.893Z,12.26
2022-09-17T16:17:48.903Z,12.27
2022-09-17T16:20:16.674Z,12.30
2022-09-17T16:22:47.108Z,12.30
2022-09-17T16:25:15.663Z,12.30
2022-09-17T16:27:49.381Z,12.32
2022-09-17T16:30:47.921Z,12.30
2022-09-17T16:33:17.382Z,12.28
2022-09-17T16:35:45.312Z,12.27
2022-09-17T16:38:12.998Z,12.24
2022-09-17T16:40:47.328Z,12.21
2022-09-17T16:43:15.222Z,12.20
2022-09-17T16:45:42.898Z,12.17
2022-09-17T16:48:12.291Z,12.14
2022-09-17T16:50:41.565Z,12.07
2022-09-17T16:53:10.505Z,12.05
2022-09-17T16:55:39.765Z,12.04
2022-09-17T16:58:07.296Z,12.01
2022-09-17T17:00:35.069Z,12.00
2022-09-17T17:03:06.777Z,11.99
2022-09-17T17:05:38.054Z,11.98
2022-09-17T17:08:06.973Z,11.93
2022-09-17T17:10:35.003Z,11.90
2022-09-17T17:13:05.372Z,11.87
2022-09-17T17:15:33.435Z,11.86
2022-09-17T17:18:00.979Z,11.83
2022-09-17T17:20:28.522Z,11.78
2022-09-17T17:22:56.319Z,11.77
2022-09-17T17:25:27.081Z,11.76
2022-09-17T17:27:57.137Z,11.73
2022-09-17T17:30:25.386Z,11.76
2022-09-17T17:32:53.800Z,11.73
2022-09-17T17:35:21.459Z,11.76
2022-09-17T17:37:49.258Z,11.76
2022-09-17T17:40:17.152Z,11.71
2022-09-17T17:42:47.342Z,11.74
2022-09-17T17:45:15.556Z,11.70
2022-09-17T17:47:45.677Z,11.72
2022-09-17T17:50:13.404Z,11.74
2022-09-17T17:52:43.568Z,11.76
2022-09-17T17:55:13.534Z,11.77
2022-09-17T17:57:41.675Z,11.76
2022-09-17T18:00:11.891Z,11.76
2022-09-17T18:02:39.630Z,11.76
2022-09-17T18:05:08.609Z,11.78
2022-09-17T18:07:38.673Z,11.79
2022-09-17T18:10:06.941Z,11.79
2022-09-17T18:12:34.423Z,11.77
2022-09-17T18:15:01.935Z,11.80
2022-09-17T18:17:32.705Z,11.78
2022-09-17T18:20:00.737Z,11.79
2022-09-17T18:22:28.292Z,11.77
2022-09-17T18:24:55.798Z,11.79
2022-09-17T18:27:23.284Z,11.77
2022-09-17T18:29:50.942Z,11.75
2022-09-17T18:32:18.827Z,11.74
2022-09-17T18:34:46.660Z,11.71
2022-09-17T18:37:14.494Z,11.66
2022-09-17T18:39:57.898Z,11.64
2022-09-17T18:42:37.706Z,11.62
2022-09-17T18:45:06.200Z,11.82
2022-09-17T18:47:36.401Z,11.79
2022-09-17T18:50:04.332Z,11.73
2022-09-17T18:52:31.833Z,11.69
2022-09-17T18:54:59.518Z,11.63
2022-09-17T18:57:27.018Z,11.62
2022-09-17T18:59:54.569Z,11.61
2022-09-17T19:02:22.123Z,11.57
2022-09-17T19:04:49.679Z,11.58
2022-09-17T19:07:17.418Z,11.59
2022-09-17T19:09:47.418Z,11.60
2022-09-17T19:12:18.885Z,11.52
2022-09-17T19:14:46.431Z,11.56
2022-09-17T19:17:13.977Z,11.59
2022-09-17T19:19:44.151Z,11.60
2022-09-17T19:22:16.273Z,11.64
2022-09-17T19:24:43.756Z,11.64
2022-09-17T19:27:11.255Z,11.65
2022-09-17T19:29:38.745Z,11.61
2022-09-17T19:32:06.455Z,11.56
2022-09-17T19:34:34.001Z,11.56
2022-09-17T19:37:01.510Z,11.52
2022-09-17T19:39:31.370Z,11.49
2022-09-17T19:42:01.301Z,11.46
2022-09-17T19:44:29.594Z,11.47
2022-09-17T19:46:57.267Z,11.46
2022-09-17T19:49:24.787Z,11.48
2022-09-17T19:51:52.271Z,11.50
2022-09-17T19:54:20.143Z,11.50
2022-09-17T19:56:50.219Z,11.52
2022-09-17T19:59:18.487Z,11.52
2022-09-17T20:01:49.267Z,11.51
2022-09-17T20:04:19.829Z,11.52
2022-09-17T20:06:47.320Z,11.51
2022-09-17T20:09:14.876Z,11.46
2022-09-17T20:11:42.418Z,11.45
2022-09-17T20:14:11.771Z,11.41
2022-09-17T20:16:40.905Z,11.37
2022-09-17T20:19:08.782Z,11.32
2022-09-17T20:21:36.303Z,11.29
2022-09-17T20:24:06.573Z,11.29
2022-09-17T20:26:34.505Z,11.25
2022-09-17T20:29:04.783Z,11.26
2022-09-17T20:31:35.338Z,11.24
2022-09-17T20:34:04.223Z,11.24
2022-09-17T20:36:36.168Z,11.26
2022-09-17T20:39:22.534Z,11.28
2022-09-17T20:41:50.677Z,11.28
2022-09-17T20:44:22.877Z,11.31
2022-09-17T20:46:50.688Z,11.32
2022-09-17T20:49:18.305Z,11.33
2022-09-17T20:51:45.774Z,11.35
2022-09-17T20:54:13.340Z,11.35
2022-09-17T20:56:40.931Z,11.35
2022-09-17T20:59:15.353Z,11.36
2022-09-17T21:01:45.499Z,11.33
2022-09-17T21:04:16.086Z,11.31
2022-09-17T21:06:44.847Z,11.32
2022-09-17T21:09:16.841Z,11.30
2022-09-17T21:11:46.569Z,11.30
2022-09-17T21:14:15.806Z,11.29
2022-09-17T21:16:43.679Z,11.27
2022-09-17T21:19:14.805Z,11.25
2022-09-17T21:21:44.463Z,11.23
2022-09-17T21:24:14.659Z,11.24
2022-09-17T21:26:42.521Z,11.25
2022-09-17T21:29:12.405Z,11.25
2022-09-17T21:31:40.386Z,11.27
2022-09-17T21:34:12.468Z,11.28
2022-09-17T21:36:45.313Z,11.29
2022-09-17T21:39:15.608Z,11.27
2022-09-17T21:41:47.772Z,11.27
2022-09-17T21:44:15.919Z,11.29
2022-09-17T21:46:44.108Z,11.32
2022-09-17T21:49:13.694Z,11.29
2022-09-17T21:51:43.692Z,11.31
2022-09-17T21:54:15.284Z,11.28
2022-09-17T21:56:42.950Z,11.29
2022-09-17T21:59:14.874Z,11.28
2022-09-17T22:01:46.645Z,11.27
2022-09-17T22:04:20.115Z,11.24
2022-09-17T22:06:51.301Z,11.22
2022-09-17T22:09:23.390Z,11.21
2022-09-17T22:11:51.799Z,11.19
2022-09-17T22:14:23.727Z,11.14
2022-09-17T22:16:54.329Z,11.13
2022-09-17T22:19:23.759Z,11.13
2022-09-17T22:21:53.553Z,11.09
2022-09-17T22:24:25.593Z,11.05
2022-09-17T22:26:58.169Z,11.02
2022-09-17T22:29:27.483Z,10.98
2022-09-17T22:31:55.269Z,10.98
2022-09-17T22:34:25.453Z,10.95
2022-09-17T22:36:52.951Z,10.92
2022-09-17T22:39:23.795Z,10.92
2022-09-17T22:41:51.415Z,10.90
2022-09-17T22:44:21.814Z,10.87
2022-09-17T22:46:51.746Z,10.85
2022-09-17T22:49:19.860Z,10.84
2022-09-17T22:51:48.128Z,10.85
2022-09-17T22:54:19.149Z,10.83
2022-09-17T22:56:48.074Z,10.83
2022-09-17T22:59:15.656Z,10.80
2022-09-17T23:01:43.456Z,10.78
2022-09-17T23:04:11.343Z,10.78
2022-09-17T23:06:42.790Z,10.77
2022-09-17T23:09:12.210Z,10.75
2022-09-17T23:11:42.390Z,10.75
2022-09-17T23:14:13.164Z,10.73
2022-09-17T23:16:48.596Z,10.72
2022-09-17T23:19:18.343Z,10.71
2022-09-17T23:21:45.897Z,10.73
2022-09-17T23:24:21.042Z,10.67
2022-09-17T23:26:49.744Z,10.71
2022-09-17T23:29:17.614Z,10.71
2022-09-17T23:31:45.213Z,10.67
2022-09-17T23:34:12.815Z,10.67
2022-09-17T23:36:40.554Z,10.67
2022-09-17T23:39:12.354Z,10.69
2022-09-17T23:41:43.280Z,10.69
2022-09-17T23:44:15.644Z,10.68
2022-09-17T23:46:44.338Z,10.69
2022-09-17T23:49:15.670Z,10.68
2022-09-17T23:51:46.037Z,10.66
2022-09-17T23:54:13.527Z,10.65
2022-09-17T23:56:41.409Z,10.65
2022-09-17T23:59:09.204Z,10.65
